KGFA/GFA METAR and TAF weather

Enter ICAO airport designator
Station Type Date Time Source
KGFA METAR 2022/09/26 08:56 UTC NOAA

KGFA 260856Z AUTO 27005KT 10SM CLR 15/04 A3019 RMK AO2 SLP207 T01460043 51006 $


Station Type Date Time Source
KGFA Decoded METAR 2022/09/26 08:56 UTC NOAA

Malmstrom Air Force Base, MT, United States (KGFA) 47-30N 111-11W
Sep 26, 2022 - 04:56 AM EDT / 2022.09.26 0856 UTC
Wind: from the W (270 degrees) at 6 MPH (5 KT):0
Visibility: 10 mile(s):0
Sky conditions: clear
Temperature: 58.3 F (14.6 C)
Dew Point: 39.7 F (4.3 C)
Relative Humidity: 49%
Pressure (altimeter): 30.19 in. Hg (1022 hPa)
Pressure tendency: 0.02 inches (0.6 hPa) higher than three hours ago
ob: KGFA 260856Z AUTO 27005KT 10SM CLR 15/04 A3019 RMK AO2 SLP207 T01460043 51006
cycle: 9

Station Type Date Time Source
KGFA TAF 2022/09/24 00:53 UTC NOAA

TAF
AMD KGFA 240050Z 2400/2502 28015KT 9999 FEW110 SCT200 OVC290 530053 QNH2993INS
BECMG 2423/2424 VRB06KT 9999 SKC 510073 QNH3017INS TX22/2420Z TN13/2411Z LAST NO
AMDS AFT 2400 NEXT 2612

Example: see airport list